Hc Nadja Maria — V2AV4 — position and weather

sailwx.info

Track history (hours):
 
Tides and Currents Weather Stations Pressure Air Temp Water Temp Dewpoint Dewpoint Depression Visibility Wind Speed Wind Dir Waves Ship Positions

Hc Nadja Maria

Last reported at 2016-May-17 13:13 UTC. Time now 2016-May-24 09:53 UTC.
Position N 31°12' E 029°45'.

Length 130 m; draft 7.2 m.

Type: Cargo ship. MMSI: 304204000.

Date/timePositionNaut miles runAvg speedWind from/ knotsBaromVisibWave heightAir tempDewpointWater temp
2016-May-17 13:13N 31°12' E 029°45'0 0.0
2016-May-17 01:19N 31°12' E 029°45'  
2016-May-14 07:26N 36°10' E 014°49'1213.8
2016-May-14 06:33N 36°16' E 014°35'1414.1
2016-May-14 05:33N 36°20' E 014°19'1413.9
2016-May-14 04:33N 36°26' E 014°03'  
2016-May-11 08:33N 35°59' W 005°21'28710.9
2016-May-10 06:07N 38°56' W 010°05'1013.1
2016-May-10 05:20N 39°06' W 010°05'  
2016-May-07 22:28N 49°44' W 003°38'1313.8
2016-May-07 21:33N 49°50' W 003°21'1212.3
2016-May-07 20:33N 49°55' W 003°04'1111.2
2016-May-07 19:33N 50°00' W 002°48'5313.3
2016-May-07 15:32N 50°16' W 001°29'1717.3
2016-May-07 14:32N 50°21' W 001°03'  
Track history (hours):
 
Tides and Currents Weather Stations Pressure Air Temp Water Temp Dewpoint Dewpoint Depression Visibility Wind Speed Wind Dir Waves Ship Positions

Hc Nadja Maria

Last reported at 2016-May-17 13:13 UTC. Time now 2016-May-24 09:53 UTC.
Position N 31°12' E 029°45'.

Length 130 m; draft 7.2 m.

Type: Cargo ship. MMSI: 304204000.

Date/timePositionNaut miles runAvg speedWind from/ knotsBaromVisibWave heightAir tempDewpointWater temp
2016-May-17 13:13N 31°12' E 029°45'0 0.0
2016-May-17 01:19N 31°12' E 029°45'  
2016-May-14 07:26N 36°10' E 014°49'1213.8
2016-May-14 06:33N 36°16' E 014°35'1414.1
2016-May-14 05:33N 36°20' E 014°19'1413.9
2016-May-14 04:33N 36°26' E 014°03'  
2016-May-11 08:33N 35°59' W 005°21'28710.9
2016-May-10 06:07N 38°56' W 010°05'1013.1
2016-May-10 05:20N 39°06' W 010°05'  
2016-May-07 22:28N 49°44' W 003°38'1313.8
2016-May-07 21:33N 49°50' W 003°21'1212.3
2016-May-07 20:33N 49°55' W 003°04'1111.2
2016-May-07 19:33N 50°00' W 002°48'5313.3
2016-May-07 15:32N 50°16' W 001°29'1717.3
2016-May-07 14:32N 50°21' W 001°03'  

Dump ship's entire track history